sensor_id;sensor_type;location;lat;lon;timestamp;P1;durP1;ratioP1;P2;durP2;ratioP2
38465;SDS011;24244;51.950;5.902;2023-09-08T00:02:25;5.07;;;3.45;;
38465;SDS011;24244;51.950;5.902;2023-09-08T00:04:52;5.85;;;4.03;;
38465;SDS011;24244;51.950;5.902;2023-09-08T00:07:20;5.22;;;3.55;;
38465;SDS011;24244;51.950;5.902;2023-09-08T00:09:48;6.00;;;3.85;;
38465;SDS011;24244;51.950;5.902;2023-09-08T00:12:15;7.45;;;4.50;;
38465;SDS011;24244;51.950;5.902;2023-09-08T00:14:42;5.90;;;3.85;;
38465;SDS011;24244;51.950;5.902;2023-09-08T00:17:11;7.78;;;4.38;;
38465;SDS011;24244;51.950;5.902;2023-09-08T00:19:38;6.50;;;3.92;;
38465;SDS011;24244;51.950;5.902;2023-09-08T00:22:05;4.80;;;3.42;;
38465;SDS011;24244;51.950;5.902;2023-09-08T00:24:34;5.65;;;3.70;;
38465;SDS011;24244;51.950;5.902;2023-09-08T00:27:02;7.32;;;4.18;;
38465;SDS011;24244;51.950;5.902;2023-09-08T00:29:30;6.03;;;3.53;;
38465;SDS011;24244;51.950;5.902;2023-09-08T00:31:56;6.65;;;4.03;;
38465;SDS011;24244;51.950;5.902;2023-09-08T00:34:23;6.95;;;4.32;;
38465;SDS011;24244;51.950;5.902;2023-09-08T00:36:50;6.22;;;3.90;;
38465;SDS011;24244;51.950;5.902;2023-09-08T00:39:17;7.60;;;4.20;;
38465;SDS011;24244;51.950;5.902;2023-09-08T00:41:44;6.68;;;4.00;;
38465;SDS011;24244;51.950;5.902;2023-09-08T00:44:13;5.97;;;3.78;;
38465;SDS011;24244;51.950;5.902;2023-09-08T00:46:40;6.35;;;4.13;;
38465;SDS011;24244;51.950;5.902;2023-09-08T00:49:07;6.00;;;3.95;;
38465;SDS011;24244;51.950;5.902;2023-09-08T00:51:35;5.97;;;3.58;;
38465;SDS011;24244;51.950;5.902;2023-09-08T00:54:05;5.95;;;4.00;;
38465;SDS011;24244;51.950;5.902;2023-09-08T00:56:32;6.13;;;3.90;;
38465;SDS011;24244;51.950;5.902;2023-09-08T00:59:00;6.82;;;4.43;;
38465;SDS011;24244;51.950;5.902;2023-09-08T01:01:30;6.28;;;4.00;;
38465;SDS011;24244;51.950;5.902;2023-09-08T01:03:58;6.70;;;4.30;;
38465;SDS011;24244;51.950;5.902;2023-09-08T01:06:25;6.57;;;4.15;;
38465;SDS011;24244;51.950;5.902;2023-09-08T01:08:52;6.07;;;3.53;;
38465;SDS011;24244;51.950;5.902;2023-09-08T01:11:21;6.60;;;4.65;;
38465;SDS011;24244;51.950;5.902;2023-09-08T01:13:48;6.88;;;4.07;;
38465;SDS011;24244;51.950;5.902;2023-09-08T01:16:15;5.78;;;4.18;;
38465;SDS011;24244;51.950;5.902;2023-09-08T01:18:44;6.63;;;4.43;;
38465;SDS011;24244;51.950;5.902;2023-09-08T01:21:27;7.45;;;4.20;;
38465;SDS011;24244;51.950;5.902;2023-09-08T01:24:15;6.45;;;3.90;;
38465;SDS011;24244;51.950;5.902;2023-09-08T01:26:53;7.05;;;4.78;;
38465;SDS011;24244;51.950;5.902;2023-09-08T01:29:20;6.38;;;4.28;;
38465;SDS011;24244;51.950;5.902;2023-09-08T01:31:50;6.32;;;4.00;;
38465;SDS011;24244;51.950;5.902;2023-09-08T01:34:18;7.00;;;4.07;;
38465;SDS011;24244;51.950;5.902;2023-09-08T01:36:45;7.38;;;4.43;;
38465;SDS011;24244;51.950;5.902;2023-09-08T01:39:12;6.78;;;4.47;;
38465;SDS011;24244;51.950;5.902;2023-09-08T01:41:40;7.00;;;4.07;;
38465;SDS011;24244;51.950;5.902;2023-09-08T01:44:08;6.22;;;4.35;;
38465;SDS011;24244;51.950;5.902;2023-09-08T01:46:37;8.98;;;4.63;;
38465;SDS011;24244;51.950;5.902;2023-09-08T01:49:05;7.10;;;4.47;;
38465;SDS011;24244;51.950;5.902;2023-09-08T01:51:32;6.18;;;4.40;;
38465;SDS011;24244;51.950;5.902;2023-09-08T01:53:58;7.68;;;4.47;;
38465;SDS011;24244;51.950;5.902;2023-09-08T01:56:25;7.80;;;4.40;;
38465;SDS011;24244;51.950;5.902;2023-09-08T01:58:52;6.53;;;4.20;;
38465;SDS011;24244;51.950;5.902;2023-09-08T02:01:20;7.78;;;4.50;;
38465;SDS011;24244;51.950;5.902;2023-09-08T02:03:48;7.18;;;4.15;;
38465;SDS011;24244;51.950;5.902;2023-09-08T02:06:14;7.82;;;4.80;;
38465;SDS011;24244;51.950;5.902;2023-09-08T02:08:41;7.30;;;4.85;;
38465;SDS011;24244;51.950;5.902;2023-09-08T02:11:08;7.72;;;4.38;;
38465;SDS011;24244;51.950;5.902;2023-09-08T02:13:35;6.45;;;4.45;;
38465;SDS011;24244;51.950;5.902;2023-09-08T02:16:02;7.25;;;4.70;;
38465;SDS011;24244;51.950;5.902;2023-09-08T02:18:30;6.50;;;4.53;;
38465;SDS011;24244;51.950;5.902;2023-09-08T02:20:57;7.18;;;4.65;;
38465;SDS011;24244;51.950;5.902;2023-09-08T02:23:25;6.72;;;4.63;;
38465;SDS011;24244;51.950;5.902;2023-09-08T02:25:52;6.70;;;4.75;;
38465;SDS011;24244;51.950;5.902;2023-09-08T02:28:18;7.57;;;4.80;;
38465;SDS011;24244;51.950;5.902;2023-09-08T02:30:46;8.82;;;4.63;;
38465;SDS011;24244;51.950;5.902;2023-09-08T02:33:12;8.40;;;4.80;;
38465;SDS011;24244;51.950;5.902;2023-09-08T02:35:41;7.72;;;4.75;;
38465;SDS011;24244;51.950;5.902;2023-09-08T02:38:08;6.53;;;4.20;;
38465;SDS011;24244;51.950;5.902;2023-09-08T02:40:34;6.30;;;4.43;;
38465;SDS011;24244;51.950;5.902;2023-09-08T02:43:02;7.15;;;4.45;;
38465;SDS011;24244;51.950;5.902;2023-09-08T02:45:29;7.88;;;5.10;;
38465;SDS011;24244;51.950;5.902;2023-09-08T02:47:59;6.30;;;4.30;;
38465;SDS011;24244;51.950;5.902;2023-09-08T02:50:26;6.80;;;4.78;;
38465;SDS011;24244;51.950;5.902;2023-09-08T02:52:54;7.15;;;4.70;;
38465;SDS011;24244;51.950;5.902;2023-09-08T02:55:21;7.47;;;5.32;;
38465;SDS011;24244;51.950;5.902;2023-09-08T02:57:48;8.15;;;4.93;;
38465;SDS011;24244;51.950;5.902;2023-09-08T03:00:15;6.70;;;4.78;;
38465;SDS011;24244;51.950;5.902;2023-09-08T03:02:42;6.25;;;4.35;;
38465;SDS011;24244;51.950;5.902;2023-09-08T03:05:09;6.65;;;4.47;;
38465;SDS011;24244;51.950;5.902;2023-09-08T03:07:36;6.30;;;4.63;;
38465;SDS011;24244;51.950;5.902;2023-09-08T03:10:05;7.30;;;5.40;;
38465;SDS011;24244;51.950;5.902;2023-09-08T03:12:33;7.38;;;4.78;;
38465;SDS011;24244;51.950;5.902;2023-09-08T03:15:00;7.82;;;5.05;;
38465;SDS011;24244;51.950;5.902;2023-09-08T03:17:28;7.85;;;5.00;;
38465;SDS011;24244;51.950;5.902;2023-09-08T03:19:55;7.50;;;5.25;;
38465;SDS011;24244;51.950;5.902;2023-09-08T03:22:22;7.30;;;5.00;;
38465;SDS011;24244;51.950;5.902;2023-09-08T03:24:49;8.95;;;5.47;;
38465;SDS011;24244;51.950;5.902;2023-09-08T03:27:17;8.48;;;4.80;;
38465;SDS011;24244;51.950;5.902;2023-09-08T03:29:44;7.20;;;5.00;;
38465;SDS011;24244;51.950;5.902;2023-09-08T03:32:11;7.80;;;4.97;;
38465;SDS011;24244;51.950;5.902;2023-09-08T03:34:38;7.82;;;5.18;;
38465;SDS011;24244;51.950;5.902;2023-09-08T03:37:06;7.80;;;5.60;;
38465;SDS011;24244;51.950;5.902;2023-09-08T03:39:33;7.32;;;4.90;;
38465;SDS011;24244;51.950;5.902;2023-09-08T03:42:00;8.85;;;4.90;;
38465;SDS011;24244;51.950;5.902;2023-09-08T03:44:29;7.93;;;5.10;;
38465;SDS011;24244;51.950;5.902;2023-09-08T03:46:56;7.25;;;4.78;;
38465;SDS011;24244;51.950;5.902;2023-09-08T03:49:23;8.52;;;5.07;;
38465;SDS011;24244;51.950;5.902;2023-09-08T03:51:49;6.72;;;4.72;;
38465;SDS011;24244;51.950;5.902;2023-09-08T03:54:16;9.07;;;5.38;;
38465;SDS011;24244;51.950;5.902;2023-09-08T03:56:43;8.25;;;5.20;;
38465;SDS011;24244;51.950;5.902;2023-09-08T03:59:10;7.63;;;5.00;;
38465;SDS011;24244;51.950;5.902;2023-09-08T04:01:38;9.32;;;5.82;;
38465;SDS011;24244;51.950;5.902;2023-09-08T04:04:05;9.85;;;6.40;;
38465;SDS011;24244;51.950;5.902;2023-09-08T04:06:32;10.35;;;5.78;;
38465;SDS011;24244;51.950;5.902;2023-09-08T04:09:00;9.55;;;6.18;;
38465;SDS011;24244;51.950;5.902;2023-09-08T04:11:27;9.02;;;5.55;;
38465;SDS011;24244;51.950;5.902;2023-09-08T04:13:54;8.25;;;5.22;;
38465;SDS011;24244;51.950;5.902;2023-09-08T04:16:21;8.20;;;5.72;;
38465;SDS011;24244;51.950;5.902;2023-09-08T04:18:50;8.00;;;5.30;;
38465;SDS011;24244;51.950;5.902;2023-09-08T04:21:21;8.98;;;5.70;;
38465;SDS011;24244;51.950;5.902;2023-09-08T04:23:48;7.72;;;5.30;;
38465;SDS011;24244;51.950;5.902;2023-09-08T04:26:15;8.82;;;5.15;;
38465;SDS011;24244;51.950;5.902;2023-09-08T04:28:42;9.93;;;5.68;;
38465;SDS011;24244;51.950;5.902;2023-09-08T04:31:09;8.63;;;5.57;;
38465;SDS011;24244;51.950;5.902;2023-09-08T04:33:36;8.20;;;5.50;;
38465;SDS011;24244;51.950;5.902;2023-09-08T04:36:05;10.77;;;6.18;;
38465;SDS011;24244;51.950;5.902;2023-09-08T04:38:31;10.48;;;5.80;;
38465;SDS011;24244;51.950;5.902;2023-09-08T04:40:58;9.32;;;6.05;;
38465;SDS011;24244;51.950;5.902;2023-09-08T04:43:25;8.23;;;5.55;;
38465;SDS011;24244;51.950;5.902;2023-09-08T04:45:52;8.38;;;5.22;;
38465;SDS011;24244;51.950;5.902;2023-09-08T04:48:19;9.57;;;6.07;;
38465;SDS011;24244;51.950;5.902;2023-09-08T04:50:46;8.75;;;5.65;;
38465;SDS011;24244;51.950;5.902;2023-09-08T04:53:14;8.73;;;5.38;;
38465;SDS011;24244;51.950;5.902;2023-09-08T04:55:41;11.10;;;5.75;;
38465;SDS011;24244;51.950;5.902;2023-09-08T04:58:08;8.82;;;5.47;;
38465;SDS011;24244;51.950;5.902;2023-09-08T05:00:37;8.70;;;5.80;;
38465;SDS011;24244;51.950;5.902;2023-09-08T05:03:05;7.30;;;5.22;;
38465;SDS011;24244;51.950;5.902;2023-09-08T05:05:32;9.23;;;6.10;;
38465;SDS011;24244;51.950;5.902;2023-09-08T05:07:59;10.02;;;5.82;;
38465;SDS011;24244;51.950;5.902;2023-09-08T05:10:28;8.43;;;5.72;;
38465;SDS011;24244;51.950;5.902;2023-09-08T05:12:54;9.00;;;6.47;;
38465;SDS011;24244;51.950;5.902;2023-09-08T05:15:21;10.40;;;6.30;;
38465;SDS011;24244;51.950;5.902;2023-09-08T05:17:49;8.98;;;6.40;;
38465;SDS011;24244;51.950;5.902;2023-09-08T05:20:16;7.50;;;5.38;;
38465;SDS011;24244;51.950;5.902;2023-09-08T05:22:43;9.85;;;6.22;;
38465;SDS011;24244;51.950;5.902;2023-09-08T05:25:09;9.25;;;6.10;;
38465;SDS011;24244;51.950;5.902;2023-09-08T05:27:38;9.52;;;6.10;;
38465;SDS011;24244;51.950;5.902;2023-09-08T05:30:05;8.93;;;6.38;;
38465;SDS011;24244;51.950;5.902;2023-09-08T05:32:33;10.68;;;6.50;;
38465;SDS011;24244;51.950;5.902;2023-09-08T05:35:02;9.27;;;6.18;;
38465;SDS011;24244;51.950;5.902;2023-09-08T05:37:29;9.85;;;6.07;;
38465;SDS011;24244;51.950;5.902;2023-09-08T05:39:56;8.80;;;6.45;;
38465;SDS011;24244;51.950;5.902;2023-09-08T05:42:23;10.00;;;6.25;;
38465;SDS011;24244;51.950;5.902;2023-09-08T05:44:51;9.15;;;5.90;;
38465;SDS011;24244;51.950;5.902;2023-09-08T05:47:18;8.45;;;5.60;;
38465;SDS011;24244;51.950;5.902;2023-09-08T05:49:45;9.20;;;5.88;;
38465;SDS011;24244;51.950;5.902;2023-09-08T05:52:12;9.68;;;6.03;;
38465;SDS011;24244;51.950;5.902;2023-09-08T05:54:39;9.48;;;5.82;;
38465;SDS011;24244;51.950;5.902;2023-09-08T05:57:06;10.00;;;6.15;;
38465;SDS011;24244;51.950;5.902;2023-09-08T05:59:32;7.78;;;5.35;;
38465;SDS011;24244;51.950;5.902;2023-09-08T06:02:01;8.85;;;6.00;;
38465;SDS011;24244;51.950;5.902;2023-09-08T06:04:28;9.80;;;5.55;;
38465;SDS011;24244;51.950;5.902;2023-09-08T06:06:55;8.63;;;5.70;;
38465;SDS011;24244;51.950;5.902;2023-09-08T06:09:22;8.93;;;5.93;;
38465;SDS011;24244;51.950;5.902;2023-09-08T06:11:49;10.13;;;6.45;;
38465;SDS011;24244;51.950;5.902;2023-09-08T06:14:17;8.38;;;5.32;;
38465;SDS011;24244;51.950;5.902;2023-09-08T06:16:44;10.50;;;5.97;;
38465;SDS011;24244;51.950;5.902;2023-09-08T06:19:13;10.45;;;6.35;;
38465;SDS011;24244;51.950;5.902;2023-09-08T06:21:39;8.60;;;5.43;;
38465;SDS011;24244;51.950;5.902;2023-09-08T06:24:07;9.35;;;5.72;;
38465;SDS011;24244;51.950;5.902;2023-09-08T06:26:34;8.95;;;5.50;;
38465;SDS011;24244;51.950;5.902;2023-09-08T06:29:01;10.38;;;6.00;;
38465;SDS011;24244;51.950;5.902;2023-09-08T06:31:28;9.23;;;6.60;;
38465;SDS011;24244;51.950;5.902;2023-09-08T06:33:55;10.10;;;5.78;;
38465;SDS011;24244;51.950;5.902;2023-09-08T06:36:23;9.13;;;6.03;;
38465;SDS011;24244;51.950;5.902;2023-09-08T06:38:50;9.65;;;6.03;;
38465;SDS011;24244;51.950;5.902;2023-09-08T06:41:17;10.27;;;5.55;;
38465;SDS011;24244;51.950;5.902;2023-09-08T06:43:44;7.80;;;5.32;;
38465;SDS011;24244;51.950;5.902;2023-09-08T06:46:11;11.27;;;6.07;;
38465;SDS011;24244;51.950;5.902;2023-09-08T06:48:38;10.13;;;6.22;;
38465;SDS011;24244;51.950;5.902;2023-09-08T06:51:05;8.35;;;5.85;;
38465;SDS011;24244;51.950;5.902;2023-09-08T06:53:33;11.30;;;6.63;;
38465;SDS011;24244;51.950;5.902;2023-09-08T06:56:00;9.00;;;5.82;;
38465;SDS011;24244;51.950;5.902;2023-09-08T06:58:27;7.95;;;5.57;;
38465;SDS011;24244;51.950;5.902;2023-09-08T07:00:54;10.82;;;6.47;;
38465;SDS011;24244;51.950;5.902;2023-09-08T07:03:21;9.98;;;6.22;;
38465;SDS011;24244;51.950;5.902;2023-09-08T07:05:53;9.98;;;6.35;;
38465;SDS011;24244;51.950;5.902;2023-09-08T07:08:20;9.18;;;6.25;;
38465;SDS011;24244;51.950;5.902;2023-09-08T07:10:51;7.93;;;5.43;;
38465;SDS011;24244;51.950;5.902;2023-09-08T07:13:18;8.38;;;5.57;;
38465;SDS011;24244;51.950;5.902;2023-09-08T07:15:45;9.02;;;6.15;;
38465;SDS011;24244;51.950;5.902;2023-09-08T07:18:12;10.07;;;5.55;;
38465;SDS011;24244;51.950;5.902;2023-09-08T07:20:39;8.20;;;5.40;;
38465;SDS011;24244;51.950;5.902;2023-09-08T07:23:06;8.35;;;5.45;;
38465;SDS011;24244;51.950;5.902;2023-09-08T07:25:32;10.65;;;6.15;;
38465;SDS011;24244;51.950;5.902;2023-09-08T07:28:01;8.30;;;5.53;;
38465;SDS011;24244;51.950;5.902;2023-09-08T07:30:27;9.55;;;5.18;;
38465;SDS011;24244;51.950;5.902;2023-09-08T07:32:55;8.05;;;5.40;;
38465;SDS011;24244;51.950;5.902;2023-09-08T07:35:22;9.20;;;5.50;;
38465;SDS011;24244;51.950;5.902;2023-09-08T07:37:50;9.23;;;5.53;;
38465;SDS011;24244;51.950;5.902;2023-09-08T07:40:17;8.32;;;5.07;;
38465;SDS011;24244;51.950;5.902;2023-09-08T07:42:44;10.20;;;5.93;;
38465;SDS011;24244;51.950;5.902;2023-09-08T07:45:12;9.85;;;5.22;;
38465;SDS011;24244;51.950;5.902;2023-09-08T07:47:39;8.48;;;5.13;;
38465;SDS011;24244;51.950;5.902;2023-09-08T07:50:16;8.60;;;4.90;;
38465;SDS011;24244;51.950;5.902;2023-09-08T07:52:45;7.20;;;4.47;;
38465;SDS011;24244;51.950;5.902;2023-09-08T07:55:13;10.07;;;4.22;;
38465;SDS011;24244;51.950;5.902;2023-09-08T07:57:40;7.63;;;4.57;;
38465;SDS011;24244;51.950;5.902;2023-09-08T08:00:08;9.32;;;4.65;;
38465;SDS011;24244;51.950;5.902;2023-09-08T08:05:11;6.90;;;4.50;;
38465;SDS011;24244;51.950;5.902;2023-09-08T08:07:39;7.10;;;4.18;;
38465;SDS011;24244;51.950;5.902;2023-09-08T08:10:06;6.80;;;4.70;;
38465;SDS011;24244;51.950;5.902;2023-09-08T08:12:34;6.47;;;3.75;;
38465;SDS011;24244;51.950;5.902;2023-09-08T08:15:00;7.65;;;4.20;;
38465;SDS011;24244;51.950;5.902;2023-09-08T08:17:28;6.57;;;4.15;;
38465;SDS011;24244;51.950;5.902;2023-09-08T08:19:57;8.18;;;4.68;;
38465;SDS011;24244;51.950;5.902;2023-09-08T08:22:24;8.25;;;4.60;;
38465;SDS011;24244;51.950;5.902;2023-09-08T08:24:51;7.97;;;4.68;;
38465;SDS011;24244;51.950;5.902;2023-09-08T08:27:18;7.47;;;4.00;;
38465;SDS011;24244;51.950;5.902;2023-09-08T08:29:45;6.88;;;4.22;;
38465;SDS011;24244;51.950;5.902;2023-09-08T08:32:12;6.53;;;3.95;;
38465;SDS011;24244;51.950;5.902;2023-09-08T08:34:38;8.27;;;4.22;;
38465;SDS011;24244;51.950;5.902;2023-09-08T08:37:07;8.70;;;4.93;;
38465;SDS011;24244;51.950;5.902;2023-09-08T08:39:33;8.35;;;4.40;;
38465;SDS011;24244;51.950;5.902;2023-09-08T08:42:06;7.28;;;4.30;;
38465;SDS011;24244;51.950;5.902;2023-09-08T08:44:33;5.65;;;3.63;;
38465;SDS011;24244;51.950;5.902;2023-09-08T08:47:00;7.28;;;4.07;;
38465;SDS011;24244;51.950;5.902;2023-09-08T08:49:29;7.32;;;4.20;;
38465;SDS011;24244;51.950;5.902;2023-09-08T08:51:58;7.57;;;4.25;;
38465;SDS011;24244;51.950;5.902;2023-09-08T08:54:28;6.72;;;4.10;;
38465;SDS011;24244;51.950;5.902;2023-09-08T08:56:55;7.43;;;4.55;;
38465;SDS011;24244;51.950;5.902;2023-09-08T08:59:22;9.55;;;4.85;;
38465;SDS011;24244;51.950;5.902;2023-09-08T09:01:49;8.73;;;4.43;;
38465;SDS011;24244;51.950;5.902;2023-09-08T09:04:16;6.63;;;4.28;;
38465;SDS011;24244;51.950;5.902;2023-09-08T09:06:44;8.60;;;4.80;;
38465;SDS011;24244;51.950;5.902;2023-09-08T09:09:12;6.65;;;4.10;;
38465;SDS011;24244;51.950;5.902;2023-09-08T09:11:41;7.65;;;4.53;;
38465;SDS011;24244;51.950;5.902;2023-09-08T09:14:08;5.50;;;3.78;;
38465;SDS011;24244;51.950;5.902;2023-09-08T09:16:38;7.55;;;4.93;;
38465;SDS011;24244;51.950;5.902;2023-09-08T09:19:06;7.10;;;4.60;;
38465;SDS011;24244;51.950;5.902;2023-09-08T09:21:41;7.22;;;4.22;;
38465;SDS011;24244;51.950;5.902;2023-09-08T09:24:13;6.88;;;4.20;;
38465;SDS011;24244;51.950;5.902;2023-09-08T09:26:41;10.25;;;5.43;;
38465;SDS011;24244;51.950;5.902;2023-09-08T09:29:11;7.40;;;4.45;;
38465;SDS011;24244;51.950;5.902;2023-09-08T09:31:50;6.40;;;3.97;;
38465;SDS011;24244;51.950;5.902;2023-09-08T09:34:18;8.10;;;4.40;;
38465;SDS011;24244;51.950;5.902;2023-09-08T09:36:44;6.85;;;4.32;;
38465;SDS011;24244;51.950;5.902;2023-09-08T09:39:12;7.38;;;5.22;;
38465;SDS011;24244;51.950;5.902;2023-09-08T09:41:39;6.75;;;4.60;;
38465;SDS011;24244;51.950;5.902;2023-09-08T09:44:09;9.18;;;5.18;;
38465;SDS011;24244;51.950;5.902;2023-09-08T09:46:36;10.40;;;4.90;;
38465;SDS011;24244;51.950;5.902;2023-09-08T09:49:03;6.90;;;4.10;;
38465;SDS011;24244;51.950;5.902;2023-09-08T09:51:32;9.95;;;4.90;;
38465;SDS011;24244;51.950;5.902;2023-09-08T09:54:06;7.40;;;4.75;;
38465;SDS011;24244;51.950;5.902;2023-09-08T09:56:33;7.05;;;4.10;;
38465;SDS011;24244;51.950;5.902;2023-09-08T09:59:04;7.72;;;4.55;;
38465;SDS011;24244;51.950;5.902;2023-09-08T10:01:33;6.70;;;3.88;;
38465;SDS011;24244;51.950;5.902;2023-09-08T10:04:02;7.68;;;5.00;;
38465;SDS011;24244;51.950;5.902;2023-09-08T10:06:30;7.43;;;4.60;;
38465;SDS011;24244;51.950;5.902;2023-09-08T10:08:58;6.45;;;4.38;;
38465;SDS011;24244;51.950;5.902;2023-09-08T10:11:28;7.90;;;4.38;;
38465;SDS011;24244;51.950;5.902;2023-09-08T10:13:58;7.10;;;4.35;;
38465;SDS011;24244;51.950;5.902;2023-09-08T10:16:27;9.70;;;4.47;;
38465;SDS011;24244;51.950;5.902;2023-09-08T10:18:56;6.10;;;3.55;;
38465;SDS011;24244;51.950;5.902;2023-09-08T10:21:26;8.25;;;5.68;;
38465;SDS011;24244;51.950;5.902;2023-09-08T10:23:57;8.35;;;5.40;;
38465;SDS011;24244;51.950;5.902;2023-09-08T10:26:31;9.02;;;5.57;;
38465;SDS011;24244;51.950;5.902;2023-09-08T10:29:01;7.43;;;4.68;;
38465;SDS011;24244;51.950;5.902;2023-09-08T10:31:30;6.32;;;4.35;;
38465;SDS011;24244;51.950;5.902;2023-09-08T10:33:57;6.35;;;4.40;;
38465;SDS011;24244;51.950;5.902;2023-09-08T10:36:24;9.23;;;5.75;;
38465;SDS011;24244;51.950;5.902;2023-09-08T10:38:51;7.50;;;4.90;;
38465;SDS011;24244;51.950;5.902;2023-09-08T10:41:27;8.23;;;5.00;;
38465;SDS011;24244;51.950;5.902;2023-09-08T10:43:55;6.50;;;3.80;;
38465;SDS011;24244;51.950;5.902;2023-09-08T10:46:24;6.13;;;4.13;;
38465;SDS011;24244;51.950;5.902;2023-09-08T10:48:54;6.07;;;4.28;;
38465;SDS011;24244;51.950;5.902;2023-09-08T10:51:27;6.07;;;3.95;;
38465;SDS011;24244;51.950;5.902;2023-09-08T10:53:54;7.63;;;4.57;;
38465;SDS011;24244;51.950;5.902;2023-09-08T10:56:21;7.28;;;4.40;;
38465;SDS011;24244;51.950;5.902;2023-09-08T10:58:53;5.97;;;4.22;;
38465;SDS011;24244;51.950;5.902;2023-09-08T11:01:20;6.75;;;4.00;;
38465;SDS011;24244;51.950;5.902;2023-09-08T11:03:55;5.78;;;3.95;;
38465;SDS011;24244;51.950;5.902;2023-09-08T11:06:24;5.10;;;3.58;;
38465;SDS011;24244;51.950;5.902;2023-09-08T11:08:56;5.78;;;3.95;;
38465;SDS011;24244;51.950;5.902;2023-09-08T11:11:33;5.65;;;3.63;;
38465;SDS011;24244;51.950;5.902;2023-09-08T11:14:00;4.50;;;3.45;;
38465;SDS011;24244;51.950;5.902;2023-09-08T11:16:27;5.20;;;3.67;;
38465;SDS011;24244;51.950;5.902;2023-09-08T11:18:59;5.63;;;3.22;;
38465;SDS011;24244;51.950;5.902;2023-09-08T11:21:27;5.65;;;3.38;;
38465;SDS011;24244;51.950;5.902;2023-09-08T11:24:01;5.78;;;3.65;;
38465;SDS011;24244;51.950;5.902;2023-09-08T11:26:29;7.13;;;4.40;;
38465;SDS011;24244;51.950;5.902;2023-09-08T11:28:55;4.80;;;3.22;;
38465;SDS011;24244;51.950;5.902;2023-09-08T11:31:23;5.53;;;4.13;;
38465;SDS011;24244;51.950;5.902;2023-09-08T11:33:54;4.20;;;3.17;;
38465;SDS011;24244;51.950;5.902;2023-09-08T11:36:23;4.55;;;3.47;;
38465;SDS011;24244;51.950;5.902;2023-09-08T11:38:49;4.97;;;3.13;;
38465;SDS011;24244;51.950;5.902;2023-09-08T11:41:16;4.63;;;3.28;;
38465;SDS011;24244;51.950;5.902;2023-09-08T11:43:43;5.18;;;3.80;;
38465;SDS011;24244;51.950;5.902;2023-09-08T11:46:11;4.15;;;2.95;;
38465;SDS011;24244;51.950;5.902;2023-09-08T11:48:38;4.88;;;3.60;;
38465;SDS011;24244;51.950;5.902;2023-09-08T11:51:06;4.50;;;2.95;;
38465;SDS011;24244;51.950;5.902;2023-09-08T11:53:34;5.97;;;3.42;;
38465;SDS011;24244;51.950;5.902;2023-09-08T11:56:03;5.07;;;3.65;;
38465;SDS011;24244;51.950;5.902;2023-09-08T11:58:31;5.45;;;3.65;;
38465;SDS011;24244;51.950;5.902;2023-09-08T12:00:58;5.15;;;3.83;;
38465;SDS011;24244;51.950;5.902;2023-09-08T12:03:26;4.68;;;3.72;;
38465;SDS011;24244;51.950;5.902;2023-09-08T12:05:52;5.10;;;3.80;;
38465;SDS011;24244;51.950;5.902;2023-09-08T12:08:19;5.20;;;3.40;;
38465;SDS011;24244;51.950;5.902;2023-09-08T12:10:48;4.40;;;3.17;;
38465;SDS011;24244;51.950;5.902;2023-09-08T12:13:20;4.90;;;3.60;;
38465;SDS011;24244;51.950;5.902;2023-09-08T12:15:47;4.57;;;3.30;;
38465;SDS011;24244;51.950;5.902;2023-09-08T12:18:14;5.28;;;3.50;;
38465;SDS011;24244;51.950;5.902;2023-09-08T12:20:42;5.25;;;3.58;;
38465;SDS011;24244;51.950;5.902;2023-09-08T12:23:15;3.78;;;3.28;;
38465;SDS011;24244;51.950;5.902;2023-09-08T12:25:44;5.47;;;3.60;;
38465;SDS011;24244;51.950;5.902;2023-09-08T12:28:13;4.80;;;3.40;;
38465;SDS011;24244;51.950;5.902;2023-09-08T12:30:40;5.15;;;4.03;;
38465;SDS011;24244;51.950;5.902;2023-09-08T12:33:08;5.85;;;3.38;;
38465;SDS011;24244;51.950;5.902;2023-09-08T12:35:36;5.25;;;3.55;;
38465;SDS011;24244;51.950;5.902;2023-09-08T12:38:03;5.47;;;3.80;;
38465;SDS011;24244;51.950;5.902;2023-09-08T12:40:33;4.43;;;3.42;;
38465;SDS011;24244;51.950;5.902;2023-09-08T12:43:01;5.47;;;3.70;;
38465;SDS011;24244;51.950;5.902;2023-09-08T12:45:48;5.65;;;3.70;;
38465;SDS011;24244;51.950;5.902;2023-09-08T12:48:15;4.90;;;3.70;;
38465;SDS011;24244;51.950;5.902;2023-09-08T12:50:42;5.50;;;3.50;;
38465;SDS011;24244;51.950;5.902;2023-09-08T12:53:09;5.85;;;3.90;;
38465;SDS011;24244;51.950;5.902;2023-09-08T12:55:36;4.47;;;3.25;;
38465;SDS011;24244;51.950;5.902;2023-09-08T12:58:02;5.10;;;3.80;;
38465;SDS011;24244;51.950;5.902;2023-09-08T13:00:30;5.82;;;3.60;;
38465;SDS011;24244;51.950;5.902;2023-09-08T13:02:58;6.38;;;3.28;;
38465;SDS011;24244;51.950;5.902;2023-09-08T13:05:25;4.88;;;3.60;;
38465;SDS011;24244;51.950;5.902;2023-09-08T13:07:52;4.78;;;3.40;;
38465;SDS011;24244;51.950;5.902;2023-09-08T13:10:19;5.65;;;3.80;;
38465;SDS011;24244;51.950;5.902;2023-09-08T13:12:46;4.28;;;3.30;;
38465;SDS011;24244;51.950;5.902;2023-09-08T13:15:15;3.85;;;2.90;;
38465;SDS011;24244;51.950;5.902;2023-09-08T13:17:42;4.15;;;3.22;;
38465;SDS011;24244;51.950;5.902;2023-09-08T13:20:11;4.30;;;3.15;;
38465;SDS011;24244;51.950;5.902;2023-09-08T13:22:39;4.05;;;3.00;;
38465;SDS011;24244;51.950;5.902;2023-09-08T13:25:06;4.40;;;3.10;;
38465;SDS011;24244;51.950;5.902;2023-09-08T13:27:33;3.83;;;2.92;;
38465;SDS011;24244;51.950;5.902;2023-09-08T13:30:10;4.82;;;3.20;;
38465;SDS011;24244;51.950;5.902;2023-09-08T13:32:38;5.47;;;3.17;;
38465;SDS011;24244;51.950;5.902;2023-09-08T13:35:05;4.45;;;2.90;;
38465;SDS011;24244;51.950;5.902;2023-09-08T13:37:34;4.35;;;3.53;;
38465;SDS011;24244;51.950;5.902;2023-09-08T13:40:01;4.80;;;3.30;;
38465;SDS011;24244;51.950;5.902;2023-09-08T13:42:29;5.00;;;3.60;;
38465;SDS011;24244;51.950;5.902;2023-09-08T13:44:56;5.68;;;3.50;;
38465;SDS011;24244;51.950;5.902;2023-09-08T13:47:23;4.75;;;3.13;;
38465;SDS011;24244;51.950;5.902;2023-09-08T13:49:50;4.45;;;3.35;;
38465;SDS011;24244;51.950;5.902;2023-09-08T13:52:19;4.55;;;3.50;;
38465;SDS011;24244;51.950;5.902;2023-09-08T13:54:49;5.15;;;3.42;;
38465;SDS011;24244;51.950;5.902;2023-09-08T13:57:36;4.40;;;3.70;;
38465;SDS011;24244;51.950;5.902;2023-09-08T14:00:07;4.07;;;3.50;;
38465;SDS011;24244;51.950;5.902;2023-09-08T14:02:42;4.95;;;3.70;;
38465;SDS011;24244;51.950;5.902;2023-09-08T14:05:15;5.15;;;3.30;;
38465;SDS011;24244;51.950;5.902;2023-09-08T14:07:45;6.28;;;3.10;;
38465;SDS011;24244;51.950;5.902;2023-09-08T14:10:23;3.70;;;3.08;;
38465;SDS011;24244;51.950;5.902;2023-09-08T14:12:52;4.53;;;3.35;;
38465;SDS011;24244;51.950;5.902;2023-09-08T14:15:20;5.80;;;3.70;;
38465;SDS011;24244;51.950;5.902;2023-09-08T14:17:47;4.10;;;3.25;;
38465;SDS011;24244;51.950;5.902;2023-09-08T14:20:14;4.97;;;3.65;;
38465;SDS011;24244;51.950;5.902;2023-09-08T14:22:40;5.05;;;3.22;;
38465;SDS011;24244;51.950;5.902;2023-09-08T14:25:08;4.35;;;2.90;;
38465;SDS011;24244;51.950;5.902;2023-09-08T14:27:36;4.55;;;3.28;;
38465;SDS011;24244;51.950;5.902;2023-09-08T14:30:03;5.75;;;3.40;;
38465;SDS011;24244;51.950;5.902;2023-09-08T14:32:37;4.85;;;3.22;;
38465;SDS011;24244;51.950;5.902;2023-09-08T14:35:04;4.78;;;3.22;;
38465;SDS011;24244;51.950;5.902;2023-09-08T14:37:32;3.95;;;3.00;;
38465;SDS011;24244;51.950;5.902;2023-09-08T14:39:59;5.00;;;3.30;;
38465;SDS011;24244;51.950;5.902;2023-09-08T14:42:26;4.88;;;3.42;;
38465;SDS011;24244;51.950;5.902;2023-09-08T14:44:54;4.15;;;2.80;;
38465;SDS011;24244;51.950;5.902;2023-09-08T14:47:21;5.03;;;3.22;;
38465;SDS011;24244;51.950;5.902;2023-09-08T14:49:48;4.15;;;3.03;;
38465;SDS011;24244;51.950;5.902;2023-09-08T14:52:16;4.32;;;3.28;;
38465;SDS011;24244;51.950;5.902;2023-09-08T14:54:47;5.05;;;3.20;;
38465;SDS011;24244;51.950;5.902;2023-09-08T14:57:13;3.92;;;2.92;;